Pagrindinis puslapis
METAR-TAF:

METAR-TAF

Oro uostai :

Grenchenas, Šveicarija

platuma: 47-10-53N, ilguma: 007-24-59E, Aukštis: 430 m

Dabartinis oras

Ataskaita buvo paskelbta 15 minutes, ne 10:50 UTC
Vėjas 2 kt nuo kintamojo kryptimis
Temperatūra 18°C
Drėgmė 59%
Slėgis 1020 hPa
Matomumas 10 km arba daugiau
nėra debesų žemiau 1500 m ir nėra kamuolinių lietaus debesų

METAR: LSZG 211050Z VRB02KT CAVOK 18/10 Q1020 NOSIG

Laikas: 13:05 (11:05 UTC)

Prognozė

Ataskaita buvo paskelbta 2 valandos ir 40 minutes, ne 08:25 UTC
Prognozė galioja nuo 21 metu 09 UTC su 21 metu 18 UTC
Vėjas 3 kt iš Šiaurės Rytų
Matomumas 10 km arba daugiau
nėra debesų žemiau 1500 m ir nėra kamuolinių lietaus debesų
Tikimybė 30% :
Laikinai
nuo 21 metu 11 UTC su 21 metu 16 UTC
Matomumas 10 km arba daugiau
Mažai debesys ne aukštis 4500 ft

TAF: LSZG 210825Z 2109/2118 04003KT CAVOK PROB30 TEMPO 2111/2116 9999 FEW045

Orai ataskaitas ir orų prognozės (METAR, TAF).

turimą stotys yra geltonos ir raudonos taškus žemėlapyje.

Perkelti pele per norėdami pamatyti stoties vardą.

Tada spustelėkite, norėdami matyti oro stebėjimo ir prognozės.

Norėdami pakeisti žemėlapį: spustelėkite ant žalios mygtukų su juodo kryžiaus žemyn,; žalią mygtuką su brūkšneliu, jei norite nutolinti; arba žalių rodyklių gretimoms žemėlapius.


METAR-TAF: